NCAR-RAP Real-Time Weather Data

Output produced by METARs form (12 August 2020  17:47 UTC)
found at http://weather.rap.ucar.edu/surface/
 
KORD 121651Z 09010G18KT 10SM FEW250 29/11 A3011 RMK AO2 SLP192 T02890106
KORD 121551Z 07009KT 10SM FEW250 28/10 A3011 RMK AO2 SLP191 T02780100
KORD 121451Z 07006KT 10SM FEW250 27/11 A3011 RMK AO2 SLP190 T02670111 58004
KORD 121351Z 05003KT 10SM FEW250 25/12 A3012 RMK AO2 SLP195 T02500122
KORD 121251Z 00000KT 10SM FEW250 23/13 A3012 RMK AO2 SLP196 T02280133
KORD 121151Z 00000KT 10SM FEW250 19/14 A3012 RMK AO2 SLP195 T01890144 10206 20178 53014
KORD 121051Z 26003KT 10SM FEW250 18/14 A3011 RMK AO2 SLP191 T01780144
KORD 120951Z 00000KT 10SM SCT250 18/14 A3009 RMK AO2 SLP184 T01780144
KORD 120851Z 00000KT 10SM BKN250 18/14 A3008 RMK AO2 SLP181 T01830144 53010
KORD 120751Z 00000KT 10SM BKN250 19/14 A3007 RMK AO2 SLP177 T01890144
KORD 120651Z 00000KT 10SM BKN250 19/14 A3005 RMK AO2 SLP172 T01940139
KORD 120551Z 00000KT 10SM SCT250 21/14 A3005 RMK AO2 SLP171 T02060139 10267 20206 402940189 53007
KORD 120451Z 18003KT 10SM BKN250 21/13 A3004 RMK AO2 SLP167 T02110133
KORD 120351Z 00000KT 10SM BKN250 22/12 A3004 RMK AO2 SLP167 T02220122
KORD 120251Z 13004KT 10SM BKN250 23/12 A3003 RMK AO2 SLP164 T02330117 52007
KORD 120151Z 10005KT 10SM BKN250 24/11 A3003 RMK AO2 SLP163 T02390111
KORD 120051Z 07005KT 10SM SCT200 BKN250 26/11 A3001 RMK AO2 SLP158 T02560111
KORD 112351Z 09006KT 10SM FEW070 BKN250 27/11 A3001 RMK AO2 SLP157 T02670111 10294 20267 53001
KORD 112251Z 10007KT 10SM FEW070 BKN250 27/12 A3000 RMK AO2 SLP156 T02720117
KORD 112151Z 07005KT 10SM BKN250 28/11 A3001 RMK AO2 SLP156 T02780111
KORD 112051Z 09008KT 10SM FEW070 SCT250 29/12 A3001 RMK AO2 SLP156 T02890117 53000
KORD 111951Z 10008KT 10SM SCT250 29/12 A3000 RMK AO2 SLP152 T02940117
KORD 111851Z 09007KT 10SM FEW070 FEW250 29/11 A3000 RMK AO2 SLP153 T02890111